sensor_id;sensor_type;location;lat;lon;timestamp;P1;durP1;ratioP1;P2;durP2;ratioP2
37859;SDS011;23698;52.014;5.190;2023-12-04T00:00:31;29.98;;;10.57;;
37859;SDS011;23698;52.014;5.190;2023-12-04T00:03:17;30.13;;;11.77;;
37859;SDS011;23698;52.014;5.190;2023-12-04T00:06:04;27.90;;;11.23;;
37859;SDS011;23698;52.014;5.190;2023-12-04T00:08:51;24.40;;;10.23;;
37859;SDS011;23698;52.014;5.190;2023-12-04T00:11:38;25.85;;;11.27;;
37859;SDS011;23698;52.014;5.190;2023-12-04T00:14:25;32.05;;;12.05;;
37859;SDS011;23698;52.014;5.190;2023-12-04T00:17:11;24.48;;;10.13;;
37859;SDS011;23698;52.014;5.190;2023-12-04T00:19:58;25.27;;;11.80;;
37859;SDS011;23698;52.014;5.190;2023-12-04T00:22:45;29.00;;;11.63;;
37859;SDS011;23698;52.014;5.190;2023-12-04T00:25:31;25.42;;;10.23;;
37859;SDS011;23698;52.014;5.190;2023-12-04T00:28:19;26.27;;;10.73;;
37859;SDS011;23698;52.014;5.190;2023-12-04T00:31:06;24.60;;;10.48;;
37859;SDS011;23698;52.014;5.190;2023-12-04T00:33:52;27.67;;;10.98;;
37859;SDS011;23698;52.014;5.190;2023-12-04T00:36:39;27.85;;;11.15;;
37859;SDS011;23698;52.014;5.190;2023-12-04T00:39:25;27.05;;;11.73;;
37859;SDS011;23698;52.014;5.190;2023-12-04T00:42:11;29.08;;;11.88;;
37859;SDS011;23698;52.014;5.190;2023-12-04T00:44:59;30.42;;;13.00;;
37859;SDS011;23698;52.014;5.190;2023-12-04T00:47:45;30.85;;;12.77;;
37859;SDS011;23698;52.014;5.190;2023-12-04T00:50:31;31.02;;;12.82;;
37859;SDS011;23698;52.014;5.190;2023-12-04T00:53:19;28.77;;;11.75;;
37859;SDS011;23698;52.014;5.190;2023-12-04T00:56:06;33.45;;;12.45;;
37859;SDS011;23698;52.014;5.190;2023-12-04T00:58:53;28.90;;;12.10;;
37859;SDS011;23698;52.014;5.190;2023-12-04T01:01:40;28.95;;;12.00;;
37859;SDS011;23698;52.014;5.190;2023-12-04T01:04:27;34.05;;;13.02;;
37859;SDS011;23698;52.014;5.190;2023-12-04T01:07:14;29.80;;;12.98;;
37859;SDS011;23698;52.014;5.190;2023-12-04T01:10:01;27.67;;;11.48;;
37859;SDS011;23698;52.014;5.190;2023-12-04T01:12:47;31.42;;;12.07;;
37859;SDS011;23698;52.014;5.190;2023-12-04T01:15:34;32.35;;;12.70;;
37859;SDS011;23698;52.014;5.190;2023-12-04T01:18:23;27.73;;;11.73;;
37859;SDS011;23698;52.014;5.190;2023-12-04T01:21:09;29.48;;;11.52;;
37859;SDS011;23698;52.014;5.190;2023-12-04T01:23:55;33.10;;;13.80;;
37859;SDS011;23698;52.014;5.190;2023-12-04T01:26:42;28.58;;;10.82;;
37859;SDS011;23698;52.014;5.190;2023-12-04T01:29:28;29.98;;;12.15;;
37859;SDS011;23698;52.014;5.190;2023-12-04T01:32:17;29.05;;;11.43;;
37859;SDS011;23698;52.014;5.190;2023-12-04T01:35:05;29.17;;;12.80;;
37859;SDS011;23698;52.014;5.190;2023-12-04T01:37:52;29.85;;;12.27;;
37859;SDS011;23698;52.014;5.190;2023-12-04T01:40:38;24.05;;;11.40;;
37859;SDS011;23698;52.014;5.190;2023-12-04T01:43:25;29.42;;;11.75;;
37859;SDS011;23698;52.014;5.190;2023-12-04T01:46:13;30.05;;;12.35;;
37859;SDS011;23698;52.014;5.190;2023-12-04T01:49:03;32.13;;;12.80;;
37859;SDS011;23698;52.014;5.190;2023-12-04T01:51:50;32.33;;;12.18;;
37859;SDS011;23698;52.014;5.190;2023-12-04T01:54:37;27.50;;;11.60;;
37859;SDS011;23698;52.014;5.190;2023-12-04T01:57:24;39.40;;;13.35;;
37859;SDS011;23698;52.014;5.190;2023-12-04T02:00:11;28.10;;;12.15;;
37859;SDS011;23698;52.014;5.190;2023-12-04T02:02:59;28.75;;;12.07;;
37859;SDS011;23698;52.014;5.190;2023-12-04T02:05:46;26.50;;;11.45;;
37859;SDS011;23698;52.014;5.190;2023-12-04T02:08:34;30.10;;;11.95;;
37859;SDS011;23698;52.014;5.190;2023-12-04T02:11:21;31.45;;;13.43;;
37859;SDS011;23698;52.014;5.190;2023-12-04T02:14:07;29.17;;;12.70;;
37859;SDS011;23698;52.014;5.190;2023-12-04T02:16:54;26.70;;;11.07;;
37859;SDS011;23698;52.014;5.190;2023-12-04T02:19:42;31.55;;;13.15;;
37859;SDS011;23698;52.014;5.190;2023-12-04T02:22:28;29.13;;;12.45;;
37859;SDS011;23698;52.014;5.190;2023-12-04T02:25:16;26.80;;;11.75;;
37859;SDS011;23698;52.014;5.190;2023-12-04T02:28:19;32.03;;;11.75;;
37859;SDS011;23698;52.014;5.190;2023-12-04T02:31:06;25.58;;;11.70;;
37859;SDS011;23698;52.014;5.190;2023-12-04T02:33:55;28.35;;;11.25;;
37859;SDS011;23698;52.014;5.190;2023-12-04T02:36:42;23.23;;;10.75;;
37859;SDS011;23698;52.014;5.190;2023-12-04T02:39:30;28.17;;;11.40;;
37859;SDS011;23698;52.014;5.190;2023-12-04T02:42:17;28.45;;;12.10;;
37859;SDS011;23698;52.014;5.190;2023-12-04T02:45:04;26.77;;;10.98;;
37859;SDS011;23698;52.014;5.190;2023-12-04T02:47:52;27.27;;;11.68;;
37859;SDS011;23698;52.014;5.190;2023-12-04T02:50:38;26.55;;;11.27;;
37859;SDS011;23698;52.014;5.190;2023-12-04T02:53:24;27.63;;;10.85;;
37859;SDS011;23698;52.014;5.190;2023-12-04T02:56:11;32.10;;;11.68;;
37859;SDS011;23698;52.014;5.190;2023-12-04T02:58:58;28.10;;;10.52;;
37859;SDS011;23698;52.014;5.190;2023-12-04T03:01:45;25.63;;;12.18;;
37859;SDS011;23698;52.014;5.190;2023-12-04T03:04:31;27.30;;;11.07;;
37859;SDS011;23698;52.014;5.190;2023-12-04T03:07:18;26.20;;;10.73;;
37859;SDS011;23698;52.014;5.190;2023-12-04T03:10:06;29.25;;;11.18;;
37859;SDS011;23698;52.014;5.190;2023-12-04T03:12:53;25.17;;;11.38;;
37859;SDS011;23698;52.014;5.190;2023-12-04T03:15:41;27.35;;;12.20;;
37859;SDS011;23698;52.014;5.190;2023-12-04T03:18:28;25.40;;;10.80;;
37859;SDS011;23698;52.014;5.190;2023-12-04T03:21:14;29.05;;;12.40;;
37859;SDS011;23698;52.014;5.190;2023-12-04T03:24:01;27.17;;;11.43;;
37859;SDS011;23698;52.014;5.190;2023-12-04T03:26:47;24.40;;;10.90;;
37859;SDS011;23698;52.014;5.190;2023-12-04T03:29:33;29.73;;;10.98;;
37859;SDS011;23698;52.014;5.190;2023-12-04T03:32:21;25.58;;;11.23;;
37859;SDS011;23698;52.014;5.190;2023-12-04T03:35:07;23.33;;;10.30;;
37859;SDS011;23698;52.014;5.190;2023-12-04T03:37:54;25.55;;;11.32;;
37859;SDS011;23698;52.014;5.190;2023-12-04T03:40:40;24.65;;;10.00;;
37859;SDS011;23698;52.014;5.190;2023-12-04T03:43:27;29.15;;;11.52;;
37859;SDS011;23698;52.014;5.190;2023-12-04T03:46:13;24.55;;;10.50;;
37859;SDS011;23698;52.014;5.190;2023-12-04T03:49:04;31.33;;;10.45;;
37859;SDS011;23698;52.014;5.190;2023-12-04T03:51:51;24.58;;;9.82;;
37859;SDS011;23698;52.014;5.190;2023-12-04T03:54:37;23.50;;;10.40;;
37859;SDS011;23698;52.014;5.190;2023-12-04T03:57:23;22.58;;;9.90;;
37859;SDS011;23698;52.014;5.190;2023-12-04T04:00:10;24.77;;;10.40;;
37859;SDS011;23698;52.014;5.190;2023-12-04T04:02:57;21.08;;;9.85;;
37859;SDS011;23698;52.014;5.190;2023-12-04T04:05:45;22.48;;;10.02;;
37859;SDS011;23698;52.014;5.190;2023-12-04T04:08:31;23.92;;;10.13;;
37859;SDS011;23698;52.014;5.190;2023-12-04T04:11:18;24.90;;;9.93;;
37859;SDS011;23698;52.014;5.190;2023-12-04T04:14:04;22.08;;;9.93;;
37859;SDS011;23698;52.014;5.190;2023-12-04T04:16:50;22.35;;;9.55;;
37859;SDS011;23698;52.014;5.190;2023-12-04T04:19:37;25.98;;;9.55;;
37859;SDS011;23698;52.014;5.190;2023-12-04T04:22:25;25.85;;;9.82;;
37859;SDS011;23698;52.014;5.190;2023-12-04T04:25:11;21.92;;;9.85;;
37859;SDS011;23698;52.014;5.190;2023-12-04T04:27:58;23.40;;;9.50;;
37859;SDS011;23698;52.014;5.190;2023-12-04T04:30:44;22.95;;;9.52;;
37859;SDS011;23698;52.014;5.190;2023-12-04T04:33:31;19.80;;;10.02;;
37859;SDS011;23698;52.014;5.190;2023-12-04T04:36:17;20.95;;;9.82;;
37859;SDS011;23698;52.014;5.190;2023-12-04T04:39:05;20.05;;;8.45;;
37859;SDS011;23698;52.014;5.190;2023-12-04T04:41:51;19.65;;;9.65;;
37859;SDS011;23698;52.014;5.190;2023-12-04T04:44:37;19.50;;;9.60;;
37859;SDS011;23698;52.014;5.190;2023-12-04T04:47:24;23.40;;;9.57;;
37859;SDS011;23698;52.014;5.190;2023-12-04T04:50:11;21.27;;;9.00;;
37859;SDS011;23698;52.014;5.190;2023-12-04T04:52:57;18.58;;;8.55;;
37859;SDS011;23698;52.014;5.190;2023-12-04T04:55:44;19.80;;;8.13;;
37859;SDS011;23698;52.014;5.190;2023-12-04T04:58:33;21.63;;;8.50;;
37859;SDS011;23698;52.014;5.190;2023-12-04T05:01:20;17.92;;;9.27;;
37859;SDS011;23698;52.014;5.190;2023-12-04T05:04:06;18.38;;;8.38;;
37859;SDS011;23698;52.014;5.190;2023-12-04T05:06:53;20.23;;;8.10;;
37859;SDS011;23698;52.014;5.190;2023-12-04T05:09:39;18.83;;;8.73;;
37859;SDS011;23698;52.014;5.190;2023-12-04T05:12:27;19.60;;;8.25;;
37859;SDS011;23698;52.014;5.190;2023-12-04T05:15:13;21.55;;;9.25;;
37859;SDS011;23698;52.014;5.190;2023-12-04T05:18:00;21.85;;;8.68;;
37859;SDS011;23698;52.014;5.190;2023-12-04T05:20:46;19.42;;;8.70;;
37859;SDS011;23698;52.014;5.190;2023-12-04T05:23:36;24.13;;;9.32;;
37859;SDS011;23698;52.014;5.190;2023-12-04T05:26:22;20.65;;;9.13;;
37859;SDS011;23698;52.014;5.190;2023-12-04T05:29:10;18.85;;;9.02;;
37859;SDS011;23698;52.014;5.190;2023-12-04T05:31:56;19.48;;;9.13;;
37859;SDS011;23698;52.014;5.190;2023-12-04T05:34:43;19.80;;;9.23;;
37859;SDS011;23698;52.014;5.190;2023-12-04T05:37:29;19.77;;;9.48;;
37859;SDS011;23698;52.014;5.190;2023-12-04T05:40:16;20.00;;;9.32;;
37859;SDS011;23698;52.014;5.190;2023-12-04T05:43:02;22.10;;;9.15;;
37859;SDS011;23698;52.014;5.190;2023-12-04T05:45:50;20.52;;;9.88;;
37859;SDS011;23698;52.014;5.190;2023-12-04T05:48:37;21.70;;;10.77;;
37859;SDS011;23698;52.014;5.190;2023-12-04T05:51:23;20.95;;;9.52;;
37859;SDS011;23698;52.014;5.190;2023-12-04T05:54:10;20.92;;;9.75;;
37859;SDS011;23698;52.014;5.190;2023-12-04T05:56:56;21.63;;;9.02;;
37859;SDS011;23698;52.014;5.190;2023-12-04T05:59:42;22.33;;;10.18;;
37859;SDS011;23698;52.014;5.190;2023-12-04T06:02:30;20.75;;;9.15;;
37859;SDS011;23698;52.014;5.190;2023-12-04T06:05:17;23.80;;;10.82;;
37859;SDS011;23698;52.014;5.190;2023-12-04T06:08:04;19.45;;;10.25;;
37859;SDS011;23698;52.014;5.190;2023-12-04T06:10:50;19.88;;;9.55;;
37859;SDS011;23698;52.014;5.190;2023-12-04T06:13:36;20.35;;;9.85;;
37859;SDS011;23698;52.014;5.190;2023-12-04T06:16:23;20.77;;;10.02;;
37859;SDS011;23698;52.014;5.190;2023-12-04T06:19:11;23.42;;;8.77;;
37859;SDS011;23698;52.014;5.190;2023-12-04T06:22:01;19.77;;;10.15;;
37859;SDS011;23698;52.014;5.190;2023-12-04T06:24:47;18.30;;;9.73;;
37859;SDS011;23698;52.014;5.190;2023-12-04T06:27:34;20.35;;;9.80;;
37859;SDS011;23698;52.014;5.190;2023-12-04T06:30:21;18.17;;;9.57;;
37859;SDS011;23698;52.014;5.190;2023-12-04T06:33:08;19.55;;;10.05;;
37859;SDS011;23698;52.014;5.190;2023-12-04T06:35:57;19.55;;;9.07;;
37859;SDS011;23698;52.014;5.190;2023-12-04T06:38:43;18.50;;;8.90;;
37859;SDS011;23698;52.014;5.190;2023-12-04T06:41:36;19.13;;;9.55;;
37859;SDS011;23698;52.014;5.190;2023-12-04T06:44:24;18.83;;;9.73;;
37859;SDS011;23698;52.014;5.190;2023-12-04T06:47:11;21.15;;;10.52;;
37859;SDS011;23698;52.014;5.190;2023-12-04T06:50:01;19.23;;;8.70;;
37859;SDS011;23698;52.014;5.190;2023-12-04T06:52:49;20.05;;;9.77;;
37859;SDS011;23698;52.014;5.190;2023-12-04T06:55:35;15.88;;;8.60;;
37859;SDS011;23698;52.014;5.190;2023-12-04T06:58:22;22.25;;;9.57;;
37859;SDS011;23698;52.014;5.190;2023-12-04T07:01:08;18.90;;;9.18;;
37859;SDS011;23698;52.014;5.190;2023-12-04T07:03:58;17.33;;;9.00;;
37859;SDS011;23698;52.014;5.190;2023-12-04T07:06:45;19.15;;;9.00;;
37859;SDS011;23698;52.014;5.190;2023-12-04T07:09:33;16.92;;;8.45;;
37859;SDS011;23698;52.014;5.190;2023-12-04T07:12:23;14.73;;;7.68;;
37859;SDS011;23698;52.014;5.190;2023-12-04T07:15:09;19.60;;;8.75;;
37859;SDS011;23698;52.014;5.190;2023-12-04T07:17:56;18.77;;;9.25;;
37859;SDS011;23698;52.014;5.190;2023-12-04T07:20:43;17.52;;;8.65;;
37859;SDS011;23698;52.014;5.190;2023-12-04T07:23:30;15.55;;;8.32;;
37859;SDS011;23698;52.014;5.190;2023-12-04T07:26:18;16.25;;;8.65;;
37859;SDS011;23698;52.014;5.190;2023-12-04T07:29:04;14.40;;;7.35;;
37859;SDS011;23698;52.014;5.190;2023-12-04T07:31:50;14.98;;;8.13;;
37859;SDS011;23698;52.014;5.190;2023-12-04T07:34:37;16.80;;;7.80;;
37859;SDS011;23698;52.014;5.190;2023-12-04T07:37:24;16.88;;;7.72;;
37859;SDS011;23698;52.014;5.190;2023-12-04T07:40:10;16.90;;;7.82;;
37859;SDS011;23698;52.014;5.190;2023-12-04T07:42:59;16.90;;;7.85;;
37859;SDS011;23698;52.014;5.190;2023-12-04T07:45:46;15.32;;;8.00;;
37859;SDS011;23698;52.014;5.190;2023-12-04T07:48:32;17.67;;;8.40;;
37859;SDS011;23698;52.014;5.190;2023-12-04T07:51:19;15.63;;;8.00;;
37859;SDS011;23698;52.014;5.190;2023-12-04T07:54:05;15.10;;;8.45;;
37859;SDS011;23698;52.014;5.190;2023-12-04T07:56:52;15.57;;;6.75;;
37859;SDS011;23698;52.014;5.190;2023-12-04T07:59:40;14.95;;;7.47;;
37859;SDS011;23698;52.014;5.190;2023-12-04T08:02:27;13.52;;;7.45;;
37859;SDS011;23698;52.014;5.190;2023-12-04T08:05:14;13.88;;;7.55;;
37859;SDS011;23698;52.014;5.190;2023-12-04T08:08:01;14.68;;;7.60;;
37859;SDS011;23698;52.014;5.190;2023-12-04T08:10:48;14.18;;;7.35;;
37859;SDS011;23698;52.014;5.190;2023-12-04T08:13:34;13.07;;;6.60;;
37859;SDS011;23698;52.014;5.190;2023-12-04T08:16:22;16.40;;;7.32;;
37859;SDS011;23698;52.014;5.190;2023-12-04T08:19:08;15.98;;;7.32;;
37859;SDS011;23698;52.014;5.190;2023-12-04T08:21:55;17.08;;;7.65;;
37859;SDS011;23698;52.014;5.190;2023-12-04T08:24:41;15.93;;;7.47;;
37859;SDS011;23698;52.014;5.190;2023-12-04T08:27:28;15.68;;;7.35;;
37859;SDS011;23698;52.014;5.190;2023-12-04T08:30:14;12.65;;;7.22;;
37859;SDS011;23698;52.014;5.190;2023-12-04T08:33:02;13.70;;;6.97;;
37859;SDS011;23698;52.014;5.190;2023-12-04T08:35:48;11.35;;;6.35;;
37859;SDS011;23698;52.014;5.190;2023-12-04T08:38:36;14.95;;;7.32;;
37859;SDS011;23698;52.014;5.190;2023-12-04T08:41:22;17.05;;;7.28;;
37859;SDS011;23698;52.014;5.190;2023-12-04T08:44:09;13.00;;;6.78;;
37859;SDS011;23698;52.014;5.190;2023-12-04T08:46:59;13.32;;;6.78;;
37859;SDS011;23698;52.014;5.190;2023-12-04T08:49:47;14.27;;;7.25;;
37859;SDS011;23698;52.014;5.190;2023-12-04T08:52:34;11.93;;;6.10;;
37859;SDS011;23698;52.014;5.190;2023-12-04T08:55:23;12.30;;;5.85;;
37859;SDS011;23698;52.014;5.190;2023-12-04T08:58:10;12.02;;;6.43;;
37859;SDS011;23698;52.014;5.190;2023-12-04T09:00:57;10.00;;;5.15;;
37859;SDS011;23698;52.014;5.190;2023-12-04T09:03:43;10.80;;;6.05;;
37859;SDS011;23698;52.014;5.190;2023-12-04T09:06:32;10.75;;;6.35;;
37859;SDS011;23698;52.014;5.190;2023-12-04T09:09:21;12.68;;;6.07;;
37859;SDS011;23698;52.014;5.190;2023-12-04T09:12:07;13.15;;;6.60;;
37859;SDS011;23698;52.014;5.190;2023-12-04T09:14:55;9.38;;;5.20;;
37859;SDS011;23698;52.014;5.190;2023-12-04T09:17:41;9.93;;;5.57;;
37859;SDS011;23698;52.014;5.190;2023-12-04T09:20:31;12.35;;;5.53;;
37859;SDS011;23698;52.014;5.190;2023-12-04T09:23:18;11.82;;;5.38;;
37859;SDS011;23698;52.014;5.190;2023-12-04T09:26:08;11.45;;;5.85;;
37859;SDS011;23698;52.014;5.190;2023-12-04T09:28:56;11.93;;;6.13;;
37859;SDS011;23698;52.014;5.190;2023-12-04T09:31:43;10.85;;;5.85;;
37859;SDS011;23698;52.014;5.190;2023-12-04T09:34:29;9.68;;;5.53;;
37859;SDS011;23698;52.014;5.190;2023-12-04T09:37:15;11.18;;;6.03;;
37859;SDS011;23698;52.014;5.190;2023-12-04T09:40:03;11.32;;;5.40;;
37859;SDS011;23698;52.014;5.190;2023-12-04T09:42:53;11.93;;;6.03;;
37859;SDS011;23698;52.014;5.190;2023-12-04T09:45:39;8.63;;;5.18;;
37859;SDS011;23698;52.014;5.190;2023-12-04T09:48:27;12.45;;;5.75;;
37859;SDS011;23698;52.014;5.190;2023-12-04T09:51:15;11.95;;;5.80;;
37859;SDS011;23698;52.014;5.190;2023-12-04T09:54:05;12.18;;;6.53;;
37859;SDS011;23698;52.014;5.190;2023-12-04T09:56:54;11.60;;;6.07;;
37859;SDS011;23698;52.014;5.190;2023-12-04T09:59:41;11.27;;;5.97;;
37859;SDS011;23698;52.014;5.190;2023-12-04T10:02:30;12.13;;;5.95;;
37859;SDS011;23698;52.014;5.190;2023-12-04T10:05:17;11.50;;;6.25;;
37859;SDS011;23698;52.014;5.190;2023-12-04T10:08:04;11.43;;;5.68;;
37859;SDS011;23698;52.014;5.190;2023-12-04T10:10:51;11.80;;;6.13;;
37859;SDS011;23698;52.014;5.190;2023-12-04T10:13:38;12.60;;;6.05;;
37859;SDS011;23698;52.014;5.190;2023-12-04T10:16:44;11.02;;;5.72;;
37859;SDS011;23698;52.014;5.190;2023-12-04T10:19:30;9.93;;;5.25;;
37859;SDS011;23698;52.014;5.190;2023-12-04T10:22:17;12.10;;;5.95;;
37859;SDS011;23698;52.014;5.190;2023-12-04T10:25:11;11.15;;;6.05;;
37859;SDS011;23698;52.014;5.190;2023-12-04T10:28:07;13.40;;;6.20;;
37859;SDS011;23698;52.014;5.190;2023-12-04T10:30:56;13.10;;;6.85;;
37859;SDS011;23698;52.014;5.190;2023-12-04T10:33:42;10.32;;;6.05;;
37859;SDS011;23698;52.014;5.190;2023-12-04T10:36:29;12.73;;;6.03;;
37859;SDS011;23698;52.014;5.190;2023-12-04T10:39:20;12.73;;;5.68;;
37859;SDS011;23698;52.014;5.190;2023-12-04T10:42:06;11.98;;;6.22;;
37859;SDS011;23698;52.014;5.190;2023-12-04T10:44:54;39.50;;;17.50;;
37859;SDS011;23698;52.014;5.190;2023-12-04T10:47:42;10.50;;;6.00;;
37859;SDS011;23698;52.014;5.190;2023-12-04T10:50:31;12.13;;;6.80;;
37859;SDS011;23698;52.014;5.190;2023-12-04T10:53:19;12.05;;;7.10;;
37859;SDS011;23698;52.014;5.190;2023-12-04T10:56:06;14.95;;;7.80;;
37859;SDS011;23698;52.014;5.190;2023-12-04T10:58:54;11.90;;;6.75;;
37859;SDS011;23698;52.014;5.190;2023-12-04T11:01:44;13.93;;;7.18;;
37859;SDS011;23698;52.014;5.190;2023-12-04T11:04:33;11.50;;;6.78;;
37859;SDS011;23698;52.014;5.190;2023-12-04T11:07:22;11.02;;;6.28;;
37859;SDS011;23698;52.014;5.190;2023-12-04T11:10:12;12.98;;;5.90;;
37859;SDS011;23698;52.014;5.190;2023-12-04T11:13:00;11.18;;;6.00;;
37859;SDS011;23698;52.014;5.190;2023-12-04T11:15:52;12.68;;;6.88;;
37859;SDS011;23698;52.014;5.190;2023-12-04T11:18:43;15.13;;;6.65;;
37859;SDS011;23698;52.014;5.190;2023-12-04T11:21:31;14.25;;;7.18;;
37859;SDS011;23698;52.014;5.190;2023-12-04T11:24:22;15.43;;;7.45;;
37859;SDS011;23698;52.014;5.190;2023-12-04T11:27:09;13.73;;;7.63;;
37859;SDS011;23698;52.014;5.190;2023-12-04T11:29:55;14.32;;;7.43;;
37859;SDS011;23698;52.014;5.190;2023-12-04T11:32:43;12.93;;;7.15;;
37859;SDS011;23698;52.014;5.190;2023-12-04T11:35:30;12.95;;;7.20;;
37859;SDS011;23698;52.014;5.190;2023-12-04T11:38:20;12.18;;;7.00;;
37859;SDS011;23698;52.014;5.190;2023-12-04T11:41:16;15.48;;;7.50;;
37859;SDS011;23698;52.014;5.190;2023-12-04T11:44:11;14.25;;;8.10;;
37859;SDS011;23698;52.014;5.190;2023-12-04T11:49:50;14.25;;;7.75;;
37859;SDS011;23698;52.014;5.190;2023-12-04T11:52:37;16.70;;;8.55;;
37859;SDS011;23698;52.014;5.190;2023-12-04T11:55:25;15.07;;;8.13;;
37859;SDS011;23698;52.014;5.190;2023-12-04T11:58:12;16.50;;;8.00;;
37859;SDS011;23698;52.014;5.190;2023-12-04T12:01:00;13.63;;;7.07;;
37859;SDS011;23698;52.014;5.190;2023-12-04T12:03:50;13.80;;;7.70;;
37859;SDS011;23698;52.014;5.190;2023-12-04T12:09:24;15.82;;;8.10;;
37859;SDS011;23698;52.014;5.190;2023-12-04T12:12:12;15.35;;;8.52;;
37859;SDS011;23698;52.014;5.190;2023-12-04T12:14:59;15.82;;;7.82;;
37859;SDS011;23698;52.014;5.190;2023-12-04T12:17:45;15.07;;;7.57;;
37859;SDS011;23698;52.014;5.190;2023-12-04T12:20:36;15.02;;;9.00;;
37859;SDS011;23698;52.014;5.190;2023-12-04T12:23:22;14.88;;;8.32;;
37859;SDS011;23698;52.014;5.190;2023-12-04T12:26:09;18.00;;;8.52;;
37859;SDS011;23698;52.014;5.190;2023-12-04T12:28:57;15.50;;;7.50;;
37859;SDS011;23698;52.014;5.190;2023-12-04T12:31:44;15.07;;;8.07;;
37859;SDS011;23698;52.014;5.190;2023-12-04T12:34:32;15.65;;;7.97;;
37859;SDS011;23698;52.014;5.190;2023-12-04T12:37:21;15.02;;;8.20;;
37859;SDS011;23698;52.014;5.190;2023-12-04T12:40:09;13.50;;;7.88;;
37859;SDS011;23698;52.014;5.190;2023-12-04T12:43:03;13.30;;;7.28;;
37859;SDS011;23698;52.014;5.190;2023-12-04T12:45:57;13.82;;;7.68;;
37859;SDS011;23698;52.014;5.190;2023-12-04T12:48:43;14.10;;;7.57;;
37859;SDS011;23698;52.014;5.190;2023-12-04T12:51:30;14.93;;;8.00;;
37859;SDS011;23698;52.014;5.190;2023-12-04T12:54:16;16.33;;;7.45;;
37859;SDS011;23698;52.014;5.190;2023-12-04T12:57:03;17.13;;;8.15;;
37859;SDS011;23698;52.014;5.190;2023-12-04T12:59:52;17.35;;;8.55;;
37859;SDS011;23698;52.014;5.190;2023-12-04T13:05:31;18.52;;;7.28;;
37859;SDS011;23698;52.014;5.190;2023-12-04T13:08:18;14.07;;;8.57;;
37859;SDS011;23698;52.014;5.190;2023-12-04T13:11:04;22.17;;;8.27;;
37859;SDS011;23698;52.014;5.190;2023-12-04T13:13:51;15.60;;;8.70;;
37859;SDS011;23698;52.014;5.190;2023-12-04T13:16:38;17.45;;;7.88;;
37859;SDS011;23698;52.014;5.190;2023-12-04T13:19:26;15.38;;;8.70;;
37859;SDS011;23698;52.014;5.190;2023-12-04T13:22:12;17.92;;;8.85;;
37859;SDS011;23698;52.014;5.190;2023-12-04T13:24:58;14.45;;;7.88;;
37859;SDS011;23698;52.014;5.190;2023-12-04T13:27:47;15.13;;;8.20;;
37859;SDS011;23698;52.014;5.190;2023-12-04T13:30:34;17.08;;;8.43;;
37859;SDS011;23698;52.014;5.190;2023-12-04T13:33:20;21.13;;;8.70;;
37859;SDS011;23698;52.014;5.190;2023-12-04T13:36:08;17.08;;;8.27;;
37859;SDS011;23698;52.014;5.190;2023-12-04T13:38:55;15.80;;;8.68;;
37859;SDS011;23698;52.014;5.190;2023-12-04T13:41:42;16.58;;;8.10;;
37859;SDS011;23698;52.014;5.190;2023-12-04T13:44:56;18.13;;;8.93;;
37859;SDS011;23698;52.014;5.190;2023-12-04T13:47:42;19.02;;;8.75;;
37859;SDS011;23698;52.014;5.190;2023-12-04T13:50:29;17.50;;;8.35;;
37859;SDS011;23698;52.014;5.190;2023-12-04T13:53:17;22.30;;;8.55;;
37859;SDS011;23698;52.014;5.190;2023-12-04T13:56:10;15.52;;;7.88;;
37859;SDS011;23698;52.014;5.190;2023-12-04T13:59:10;16.73;;;9.30;;
37859;SDS011;23698;52.014;5.190;2023-12-04T14:02:03;13.50;;;8.50;;
37859;SDS011;23698;52.014;5.190;2023-12-04T14:04:55;15.43;;;8.32;;
37859;SDS011;23698;52.014;5.190;2023-12-04T14:07:41;14.85;;;7.95;;
37859;SDS011;23698;52.014;5.190;2023-12-04T14:10:30;15.32;;;7.63;;
37859;SDS011;23698;52.014;5.190;2023-12-04T14:13:20;15.38;;;7.55;;
37859;SDS011;23698;52.014;5.190;2023-12-04T14:16:07;14.25;;;7.95;;
37859;SDS011;23698;52.014;5.190;2023-12-04T14:18:54;14.90;;;8.13;;
37859;SDS011;23698;52.014;5.190;2023-12-04T14:21:42;14.30;;;8.02;;
37859;SDS011;23698;52.014;5.190;2023-12-04T14:24:28;15.82;;;8.18;;
37859;SDS011;23698;52.014;5.190;2023-12-04T14:27:16;16.83;;;8.10;;
37859;SDS011;23698;52.014;5.190;2023-12-04T14:30:03;17.58;;;9.38;;
37859;SDS011;23698;52.014;5.190;2023-12-04T14:32:51;15.10;;;8.73;;
37859;SDS011;23698;52.014;5.190;2023-12-04T14:35:38;15.88;;;8.45;;
37859;SDS011;23698;52.014;5.190;2023-12-04T14:38:24;16.55;;;8.45;;
37859;SDS011;23698;52.014;5.190;2023-12-04T14:41:11;15.48;;;7.72;;
37859;SDS011;23698;52.014;5.190;2023-12-04T14:43:59;13.38;;;8.02;;
37859;SDS011;23698;52.014;5.190;2023-12-04T14:46:46;13.63;;;7.22;;
37859;SDS011;23698;52.014;5.190;2023-12-04T14:49:32;14.75;;;7.40;;
37859;SDS011;23698;52.014;5.190;2023-12-04T14:52:20;16.30;;;9.02;;
37859;SDS011;23698;52.014;5.190;2023-12-04T14:55:07;14.57;;;8.50;;
37859;SDS011;23698;52.014;5.190;2023-12-04T14:58:25;15.77;;;8.18;;
37859;SDS011;23698;52.014;5.190;2023-12-04T15:01:31;17.42;;;7.78;;
37859;SDS011;23698;52.014;5.190;2023-12-04T15:04:35;15.15;;;8.07;;
37859;SDS011;23698;52.014;5.190;2023-12-04T15:07:42;16.85;;;8.20;;
37859;SDS011;23698;52.014;5.190;2023-12-04T15:11:01;15.60;;;8.80;;
37859;SDS011;23698;52.014;5.190;2023-12-04T15:14:10;15.68;;;8.27;;
37859;SDS011;23698;52.014;5.190;2023-12-04T15:17:16;15.50;;;8.80;;
37859;SDS011;23698;52.014;5.190;2023-12-04T15:20:13;17.30;;;9.15;;
37859;SDS011;23698;52.014;5.190;2023-12-04T15:23:16;17.13;;;8.20;;
37859;SDS011;23698;52.014;5.190;2023-12-04T15:26:03;14.85;;;7.80;;
37859;SDS011;23698;52.014;5.190;2023-12-04T15:28:49;17.95;;;8.80;;
37859;SDS011;23698;52.014;5.190;2023-12-04T15:31:35;18.25;;;8.48;;
37859;SDS011;23698;52.014;5.190;2023-12-04T15:34:23;17.23;;;9.20;;
37859;SDS011;23698;52.014;5.190;2023-12-04T15:37:08;17.40;;;9.68;;
37859;SDS011;23698;52.014;5.190;2023-12-04T15:39:55;15.95;;;8.80;;
37859;SDS011;23698;52.014;5.190;2023-12-04T15:42:41;16.40;;;9.18;;
37859;SDS011;23698;52.014;5.190;2023-12-04T15:45:27;20.15;;;9.52;;
37859;SDS011;23698;52.014;5.190;2023-12-04T15:48:14;19.63;;;9.75;;
37859;SDS011;23698;52.014;5.190;2023-12-04T15:51:01;16.10;;;9.32;;
37859;SDS011;23698;52.014;5.190;2023-12-04T15:53:47;18.13;;;8.40;;
37859;SDS011;23698;52.014;5.190;2023-12-04T15:56:34;15.98;;;9.02;;
37859;SDS011;23698;52.014;5.190;2023-12-04T15:59:21;19.73;;;9.48;;
37859;SDS011;23698;52.014;5.190;2023-12-04T16:02:07;18.17;;;8.93;;
37859;SDS011;23698;52.014;5.190;2023-12-04T16:04:53;18.10;;;8.48;;
37859;SDS011;23698;52.014;5.190;2023-12-04T16:07:44;20.77;;;10.30;;
37859;SDS011;23698;52.014;5.190;2023-12-04T16:10:31;21.85;;;11.05;;
37859;SDS011;23698;52.014;5.190;2023-12-04T16:13:21;20.02;;;10.50;;
37859;SDS011;23698;52.014;5.190;2023-12-04T16:16:07;19.25;;;10.00;;
37859;SDS011;23698;52.014;5.190;2023-12-04T16:18:53;20.85;;;11.05;;
37859;SDS011;23698;52.014;5.190;2023-12-04T16:21:40;23.40;;;11.88;;
37859;SDS011;23698;52.014;5.190;2023-12-04T16:24:28;20.00;;;10.98;;
37859;SDS011;23698;52.014;5.190;2023-12-04T16:27:15;18.77;;;11.65;;
37859;SDS011;23698;52.014;5.190;2023-12-04T16:30:01;21.80;;;12.43;;
37859;SDS011;23698;52.014;5.190;2023-12-04T16:32:48;20.38;;;11.73;;
37859;SDS011;23698;52.014;5.190;2023-12-04T16:35:37;26.15;;;12.23;;
37859;SDS011;23698;52.014;5.190;2023-12-04T16:38:23;24.38;;;12.05;;
37859;SDS011;23698;52.014;5.190;2023-12-04T16:41:13;27.63;;;14.10;;